NWS Home NWS Lubbock West Texas Mesonet Day over Day changes as of 0147 PM, Wed Jan 29, 2020

Latest   N   C   S   Daily Sum   3hrΔ   24hrΔ   Soil Data 
Site Map   24hr Precip   72hr Precip   Google Plot


Station Time of Last Temp Today Temp Yesterday Delta-T Dewpoint Today Dewpoint Yesterday Delta-Td Delta-Pressure (mB)
Reese Center  01:40 PM 51.3 45 6.4 22.5 30.7 -8.2 1.9
Abernathy  01:40 PM 51.1 43.3 7.8 24.1 31.8 -7.7 2.6
Plainview  01:40 PM 50.4 41 9.4 23.7 33.1 -9.4 2.4
Tahoka  01:40 PM 53.5 45.9 7.6 23.9 31.5 -7.6 2.3
Slaton  01:40 PM 52 43.3 8.7 23.7 32.1 -8.4 2.8
Levelland  01:40 PM 50.5 47.7 2.8 20.9 28.6 -7.6 1
Roaring Springs  01:40 PM 49.6 41.5 8.1 32.3 34.1 -1.8 4.8
Floydada  01:40 PM 52 39.7 12.2 21.9 32.4 -10.5 3.3
Ralls  01:40 PM 51 41.8 9.1 21.9 30.3 -8.4 3.4
Brownfield  01:40 PM 52.1 47.9 4.2 22.2 29.8 -7.6 1.3
Muleshoe  01:40 PM 51.1 47.4 3.7 19.9 27.1 -7.2 0.2
Morton  01:40 PM 51.9 49 2.9 17.1 22.8 -5.7 0.2
O'Donnell  01:40 PM 51.2 49.7 1.5 24.8 31.6 -6.8 2.2
Seagraves  01:40 PM 52 51.1 0.9 23.6 27.4 -3.8 0.5
Amherst  01:40 PM 51.4 46.5 4.9 19.5 28.7 -9.2 1.1
Plains  01:40 PM 51.6 49.2 2.4 20.8 24.8 -4 0.2
Lamesa  01:40 PM 51.5 49.1 2.4 25 31.8 -6.8 2
Hart  01:40 PM 50.1 44.1 6 22.7 31.6 -8.8 2
Friona  01:40 PM 50.3 43.8 6.5 21.7 30 -8.3 0.4
Dimmitt  01:40 PM 48.7 43.1 5.7 22.5 29.6 -7.1 1.3
Tulia  01:40 PM 48.8 42.6 6.2 18.4 31.2 -12.8 2.6
Silverton  01:40 PM 48.8 37.6 11.2 24.9 32.9 -8 3.5
Post  01:40 PM 53.6 45.3 8.2 24.6 31.1 -6.5 3.1
Seminole  01:40 PM 52.1 51.7 0.4 21.3 25.5 -4.2 0
Gail  01:40 PM 52.6 49.4 3.2 23.7 31.1 -7.4 3.1
White River Lake  01:40 PM 52 45.2 6.7 26.3 30.3 -4 4.1
Graham  01:40 PM 50.4 45.7 4.8 26.1 32.3 -6.2 3.3
Sundown  01:40 PM 53.3 49.7 3.6 18.9 24.6 -5.7 0.5
Anton  01:40 PM 51.3 46.4 4.9 21.4 29.4 -8 2
Fluvanna  01:40 PM 50.4 46 4.4 27.8 30.9 -3.1 3.4
Spur  01:40 PM 51.2 44.7 6.5 30 30.6 -0.6 4.2
Northwest Lubbock  01:40 PM 52.2 44.6 7.6 22 31.2 -9.2 2.2
Guthrie  01:40 PM 50.8 40.1 10.8 31.2 30 1.1 4.9
Clarendon  01:40 PM 49.4 39.5 9.9 26.6 34 -7.4 4
Paducah  01:40 PM 49.2 39.1 10.1 34.8 33.5 1.2 5
Snyder  01:40 PM 51.5 43.1 8.4 30.5 33.3 -2.9 4
Memphis  01:40 PM 47.6 35.7 11.9 35.8 32.7 3.1 4.6
Jayton  01:40 PM 50.2 43.3 6.8 32.1 32.3 -0.2 4.3
Pampa  01:40 PM 46.5 34.8 11.6 25.9 33.8 -7.9 3.9
Aspermont  01:40 PM 48.2 43 5.2 33.9 33 0.9 5.2
Hereford  01:40 PM 49.4 42.1 7.3 22.7 30.5 -7.8 0.7
Goodlett  01:40 PM 44.7 35.5 9.2 35.8 33.8 2 6.3
McLean  01:40 PM 45.8 33.1 12.6 30.5 32.8 -2.3 4.8
Denver City  01:40 PM 51.5 49.7 1.8 17 22.2 -5.3 -0.5
Lake Alan Henry  01:40 PM 53.5 45.4 8 29.6 31.2 -1.6 3.5
Wolfforth  01:40 PM 52 46 6.1 22.7 30.8 -8.2 1.7
Andrews  01:40 PM 53.5 52.4 1.2 20.8 27.4 -6.7 0.3
Turkey  01:40 PM 49.5 41.1 8.4 29.2 33.6 -4.3 4
Childress  01:40 PM 48.4 36 12.4 33.2 33.7 -0.5 5.5
Tatum  01:40 PM 52.7 49.8 2.9 17 19.5 -2.5 -1.2
Northfield  01:40 PM 51.3 40.7 10.6 31.6 33.6 -2 4.1
Dora  01:40 PM 51 47.7 3.4 18.4 45.4 -27 -1.2
Northwest San Angelo  01:40 PM 55.8 46.9 8.9 24.5 33.4 -8.9 3.7
Saint Lawrence  01:40 PM 54.8 50.3 4.5 24.3 31.7 -7.4 1.9
Haskell  01:40 PM 43.2 40.3 2.9 33 34.2 -1.2 6.3
Wall  01:40 PM 50.2 45.9 4.3 34.6 39.2 -4.6 4.2
Seymour  01:40 PM 40.4 38.8 1.5 33.9 36 -2.2 8
Knox City  01:40 PM 46.3 39.9 6.4 34.9 35.2 -0.3 6.1
Guadalupe Mtns Park  01:40 PM 46.5 48.3 -1.8 16.7 25.2 -8.5 -3.7
Caprock Canyons   01:40 PM 49 40.2 8.9 26.7 33.2 -6.5 3.8
Odell  01:40 PM 39.3 36.8 2.5 32.9 34.8 -1.9 8.6
Coyanosa  01:40 PM 58.9 57.5 1.4 21 26.7 -5.7 -2
Big Lake  01:40 PM 57.1 50.5 6.6 25.4 32.5 -7.1 1.7
Junction  01:40 PM 55.8 55.6 0.1 32 39.3 -7.4 4.2
Hobbs  01:40 PM 51.6 51.5 0.1 17.3 21.3 -4 -1
Canadian  01:40 PM 40.5 33.2 7.2 33.2 33.2 -0 4.6
Palo Duro Canyon State Park Rim  01:40 PM 50.7 40.5 10.2 21.3 30.4 -9.2 2.5
Bootleg  01:40 PM 47.4 43.6 3.7 20.4 25.2 -4.7 -0
Sterling City  01:40 PM 54.4 47.3 7.1 28.2 31.9 -3.7 3.2
Mertzon  01:40 PM 54.9 48.9 6 27.4 33.2 -5.8 3.2
Persimmon Gap  01:40 PM 59.7 61.9 -2.2 24.1 28.2 -4.1 -2.3
Weinert  01:40 PM 42.3 41.1 1.2 32.2 34.4 -2.2 6.7
Claude 12 Southwest  01:40 PM 49 37.7 11.3 20.1 33.2 -13.1 2.8
Amarillo 7 South Southeast  01:40 PM 49.1 42.3 6.8 21.3 32.2 -10.9 2.2
Umbarger  01:40 PM 48.9 43.1 5.8 23.3 32.9 -9.7 1.4
Lomax  01:40 PM 53.4 51.6 1.8 26 31 -5 2.6
Amarillo 9 North Northeast  01:40 PM 50.1 41.9 8.1 21.3 31.3 -10 1.7
Aiken  01:40 PM 50.7 39.3 11.4 20 32.5 -12.5 2.6
Sweetwater  01:40 PM 50.7 41.5 9.2 30.2 33.8 -3.6 4.2
Dozier  01:40 PM 47 34.7 12.3 33.9 34.6 -0.7 5.1
Amarillo 15 North Northwest  01:40 PM 50.4 43.1 7.3 22.8 30.7 -7.9 1.4
Menard  01:40 PM 53.3 49.3 4.1 31 37.9 -6.9 4.5
Tarzan  01:40 PM 52.5 51.9 0.6 25.6 31 -5.4 1.9
Goodnight  01:40 PM 50.2 37 13.2 28.1 34.9 -6.8 3.3
Boys Ranch   01:40 PM 49.3 44.8 4.5 22.2 30.4 -8.1 0.8
Fort McKavett  01:40 PM 54.4 49.6 4.8 28.5 37.7 -9.2 3.8
Fort Chadbourne  01:40 PM 52.6 43.9 8.7 30.4 38.4 -7.9 4.4
Palo Duro Canyon State Park Floor  01:40 PM 54.3 43.9 10.4 21.3 32 -10.7 2
Fort Lancaster  01:40 PM 62 58.4 3.6 23.9 35.9 -12 0.6
Dell City 1N  01:40 PM 53.7 55.6 -1.9 19.5 25.7 -6.1 -5.3
Clyde  01:40 PM 51.3 39.8 11.4 32.1 34.7 -2.6 5.6
Snyder SSW  01:40 PM 51.5 44 7.5 27.8 32.1 -4.3 3.8
Panhandle  01:40 PM 47.6 36.1 11.5 24 33.3 -9.3 2.9
Vigo Park  01:40 PM 47.9 38 9.9 24.4 32.5 -8 2.7
Welch  01:40 PM 52.3 49.5 2.8 23.9 30.6 -6.6 1.7
Throckmorton  01:40 PM 41 39.7 1.4 34.6 37.8 -3.1 7.8
Sierra Blanca  01:40 PM 57.8 52 5.9 15.9 25.1 -9.2 -6.1
Fort Lewis CO  01:40 PM 37.4 35.6 1.8 20.5 14.2 6.3 -3.9
New Home  01:40 PM 52.3 45.5 6.7 25.1 31.9 -6.8 2.1
McCamey  01:40 PM 60 56.8 3.2 23.9 31.5 -7.6 -0.1
Stamford  01:40 PM 45.1 41.9 3.2 34.3 35.2 -0.9 6
Crowell  01:40 PM 46 38.2 7.8 35.6 36 -0.4 6.7
Stinnett  01:40 PM 47.3 39.7 7.7 25.1 33.4 -8.3 2.6
Colorado City  01:40 PM 53.4 45.9 7.5 28.3 32 -3.8 3.8
Happy  01:40 PM 48.7 41.7 7 21.3 31 -9.8 2.7
Endee  01:40 PM 49.4 46.5 2.9 21.2 26.8 -5.6 -0.7
JA Ranch  01:40 PM 52.3 40.3 11.9 25.9 33.9 -8 3.2
Adrian  01:40 PM 47.2 42.4 4.8 24.5 27.9 -3.5 0.1
Lesley  01:40 PM 52.4 42.1 10.3 33 34.8 -1.8 3.7
Earth  01:40 PM 50.8 46.8 4 20.1 27.3 -7.2 0.9
Van Horn  01:40 PM 62.7 55.8 6.9 19.8 25.6 -5.8 -5.7
Rotan  01:40 PM 50.2 44.1 6.1 31.5 32.8 -1.3 4.3
Fritch  01:40 PM 48.3 40.5 7.8 24.8 32.2 -7.4 2.1
Estelline  01:40 PM 50.5 36.9 13.5 34.4 34.1 0.3 4.3
Crane  01:40 PM 56.9 56.3 0.6 22.7 30.7 -8 0
Hackberry  01:40 PM 48.7 36.5 12.2 34.1 34.1 0 5.2
Romero 11SSW  01:40 PM 46.9 46.8 0.1 22.9 26.4 -3.5 0.6
Palo Duro Reservoir 1NW  01:40 PM 46.3 37.6 8.7 26.8 33.3 -6.6 2.6
South Plains 3ENE  01:40 PM 50.1 38.7 11.4 24.6 33.5 -8.9 3.1
Lake McClellan 2NW  01:40 PM 48.4 36 12.4 22.6 33.4 -10.8 4
Segovia 7SSW  01:40 PM 55 56.7 -1.7 29.9 39 -9.1 4.3
Castolon 1NW BBNP  01:40 PM 65.6 68.2 -2.6 22 23.1 -1.1 -3.4
Smyer  01:40 PM 53.3 46.7 6.6 21.9 30 -8.1 1.8
Doole 3WNW  01:40 PM 52.3 45.8 6.5 35.2 38.9 -3.7 4.7
Stratford  01:40 PM 47.2 42.1 5.1 23.4 30.9 -7.5 0.9
Truscott  01:40 PM 44.9 38.6 6.3 34.2 35.1 -0.9 6.4
Hefner  01:40 PM 42.6 39.1 3.5 33.3 35.6 -2.3 7.3
Kent I10-I20 Split  01:40 PM 53.6 53.7 -0.2 20.3 24.6 -4.3 -4.6
Olton  01:40 PM 50.6 44 6.6 19.5 29.7 -10.2 1.6

West Texas Mesonet Home   Site Map/Menu  NWS Lubbock Soil Data  Daily Summary Page  24hr Precip  72hr Precip  Google Plot